sensor_id;sensor_type;location;lat;lon;timestamp;P1;durP1;ratioP1;P2;durP2;ratioP2
55316;SDS011;41178;48.956;8.130;2023-07-02T00:00:00;5.20;;;3.45;;
55316;SDS011;41178;48.956;8.130;2023-07-02T00:05:03;3.28;;;2.97;;
55316;SDS011;41178;48.956;8.130;2023-07-02T00:10:05;3.92;;;3.03;;
55316;SDS011;41178;48.956;8.130;2023-07-02T00:15:07;3.42;;;3.03;;
55316;SDS011;41178;48.956;8.130;2023-07-02T00:20:09;5.30;;;2.90;;
55316;SDS011;41178;48.956;8.130;2023-07-02T00:25:18;3.28;;;2.97;;
55316;SDS011;41178;48.956;8.130;2023-07-02T00:30:20;3.38;;;3.03;;
55316;SDS011;41178;48.956;8.130;2023-07-02T00:35:22;3.45;;;3.13;;
55316;SDS011;41178;48.956;8.130;2023-07-02T00:40:24;4.25;;;3.33;;
55316;SDS011;41178;48.956;8.130;2023-07-02T00:45:28;3.55;;;3.25;;
55316;SDS011;41178;48.956;8.130;2023-07-02T00:50:30;5.22;;;3.28;;
55316;SDS011;41178;48.956;8.130;2023-07-02T00:55:32;7.53;;;3.33;;
55316;SDS011;41178;48.956;8.130;2023-07-02T01:00:34;3.83;;;3.08;;
55316;SDS011;41178;48.956;8.130;2023-07-02T01:05:36;3.20;;;2.90;;
55316;SDS011;41178;48.956;8.130;2023-07-02T01:10:38;4.55;;;3.40;;
55316;SDS011;41178;48.956;8.130;2023-07-02T01:15:39;4.00;;;3.38;;
55316;SDS011;41178;48.956;8.130;2023-07-02T01:20:42;3.67;;;3.00;;
55316;SDS011;41178;48.956;8.130;2023-07-02T01:25:45;5.47;;;3.30;;
55316;SDS011;41178;48.956;8.130;2023-07-02T01:30:47;5.17;;;3.57;;
55316;SDS011;41178;48.956;8.130;2023-07-02T01:35:49;4.73;;;3.30;;
55316;SDS011;41178;48.956;8.130;2023-07-02T01:40:51;5.20;;;3.50;;
55316;SDS011;41178;48.956;8.130;2023-07-02T01:45:53;4.60;;;3.10;;
55316;SDS011;41178;48.956;8.130;2023-07-02T01:50:57;4.57;;;3.00;;
55316;SDS011;41178;48.956;8.130;2023-07-02T01:55:59;3.27;;;2.83;;
55316;SDS011;41178;48.956;8.130;2023-07-02T02:01:01;5.00;;;2.97;;
55316;SDS011;41178;48.956;8.130;2023-07-02T02:06:03;7.97;;;3.97;;
55316;SDS011;41178;48.956;8.130;2023-07-02T02:11:04;4.63;;;3.53;;
55316;SDS011;41178;48.956;8.130;2023-07-02T02:16:06;4.57;;;3.43;;
55316;SDS011;41178;48.956;8.130;2023-07-02T02:21:08;5.33;;;3.20;;
55316;SDS011;41178;48.956;8.130;2023-07-02T02:26:10;5.80;;;3.57;;
55316;SDS011;41178;48.956;8.130;2023-07-02T02:31:12;5.30;;;3.40;;
55316;SDS011;41178;48.956;8.130;2023-07-02T02:36:14;7.97;;;3.10;;
55316;SDS011;41178;48.956;8.130;2023-07-02T02:41:15;5.40;;;3.37;;
55316;SDS011;41178;48.956;8.130;2023-07-02T02:46:20;6.10;;;3.50;;
55316;SDS011;41178;48.956;8.130;2023-07-02T02:51:25;5.77;;;3.27;;
55316;SDS011;41178;48.956;8.130;2023-07-02T02:56:27;4.00;;;3.13;;
55316;SDS011;41178;48.956;8.130;2023-07-02T03:01:29;5.10;;;3.50;;
55316;SDS011;41178;48.956;8.130;2023-07-02T03:06:32;6.77;;;3.73;;
55316;SDS011;41178;48.956;8.130;2023-07-02T03:11:34;10.20;;;3.47;;
55316;SDS011;41178;48.956;8.130;2023-07-02T03:16:36;6.97;;;3.60;;
55316;SDS011;41178;48.956;8.130;2023-07-02T03:21:42;6.87;;;3.77;;
55316;SDS011;41178;48.956;8.130;2023-07-02T03:26:46;4.27;;;3.60;;
55316;SDS011;41178;48.956;8.130;2023-07-02T03:31:48;6.27;;;3.80;;
55316;SDS011;41178;48.956;8.130;2023-07-02T03:36:50;8.67;;;3.63;;
55316;SDS011;41178;48.956;8.130;2023-07-02T03:41:51;7.60;;;3.70;;
55316;SDS011;41178;48.956;8.130;2023-07-02T03:46:53;7.47;;;3.67;;
55316;SDS011;41178;48.956;8.130;2023-07-02T03:51:55;6.43;;;3.93;;
55316;SDS011;41178;48.956;8.130;2023-07-02T03:56:57;8.07;;;4.40;;
55316;SDS011;41178;48.956;8.130;2023-07-02T04:01:58;4.57;;;3.77;;
55316;SDS011;41178;48.956;8.130;2023-07-02T04:07:00;7.00;;;3.80;;
55316;SDS011;41178;48.956;8.130;2023-07-02T04:12:02;5.83;;;3.87;;
55316;SDS011;41178;48.956;8.130;2023-07-02T04:17:05;5.97;;;4.13;;
55316;SDS011;41178;48.956;8.130;2023-07-02T04:22:07;10.53;;;4.33;;
55316;SDS011;41178;48.956;8.130;2023-07-02T04:27:09;4.63;;;3.83;;
55316;SDS011;41178;48.956;8.130;2023-07-02T04:32:31;6.13;;;3.70;;
55316;SDS011;41178;48.956;8.130;2023-07-02T04:37:33;7.00;;;3.40;;
55316;SDS011;41178;48.956;8.130;2023-07-02T04:42:38;5.57;;;4.20;;
55316;SDS011;41178;48.956;8.130;2023-07-02T04:47:44;8.00;;;4.17;;
55316;SDS011;41178;48.956;8.130;2023-07-02T04:52:46;8.80;;;4.07;;
55316;SDS011;41178;48.956;8.130;2023-07-02T04:57:48;5.93;;;3.87;;
55316;SDS011;41178;48.956;8.130;2023-07-02T05:02:50;6.17;;;4.30;;
55316;SDS011;41178;48.956;8.130;2023-07-02T05:07:53;7.27;;;4.23;;
55316;SDS011;41178;48.956;8.130;2023-07-02T05:12:55;6.10;;;3.80;;
55316;SDS011;41178;48.956;8.130;2023-07-02T05:17:57;5.57;;;4.00;;
55316;SDS011;41178;48.956;8.130;2023-07-02T05:22:59;4.93;;;3.50;;
55316;SDS011;41178;48.956;8.130;2023-07-02T05:28:01;5.20;;;3.37;;
55316;SDS011;41178;48.956;8.130;2023-07-02T05:33:02;7.53;;;4.37;;
55316;SDS011;41178;48.956;8.130;2023-07-02T05:38:04;7.87;;;3.97;;
55316;SDS011;41178;48.956;8.130;2023-07-02T05:43:06;4.70;;;3.73;;
55316;SDS011;41178;48.956;8.130;2023-07-02T05:48:08;6.17;;;4.10;;
55316;SDS011;41178;48.956;8.130;2023-07-02T05:53:09;10.53;;;5.33;;
55316;SDS011;41178;48.956;8.130;2023-07-02T05:58:12;8.47;;;5.73;;
55316;SDS011;41178;48.956;8.130;2023-07-02T06:03:14;9.00;;;5.90;;
55316;SDS011;41178;48.956;8.130;2023-07-02T06:08:21;8.07;;;5.90;;
55316;SDS011;41178;48.956;8.130;2023-07-02T06:13:23;8.27;;;5.67;;
55316;SDS011;41178;48.956;8.130;2023-07-02T06:18:25;8.20;;;6.00;;
55316;SDS011;41178;48.956;8.130;2023-07-02T06:23:29;10.17;;;6.57;;
55316;SDS011;41178;48.956;8.130;2023-07-02T06:28:31;11.37;;;7.07;;
55316;SDS011;41178;48.956;8.130;2023-07-02T06:33:33;12.73;;;7.63;;
55316;SDS011;41178;48.956;8.130;2023-07-02T06:38:34;12.80;;;7.40;;
55316;SDS011;41178;48.956;8.130;2023-07-02T06:43:36;10.77;;;6.53;;
55316;SDS011;41178;48.956;8.130;2023-07-02T06:48:38;10.70;;;7.13;;
55316;SDS011;41178;48.956;8.130;2023-07-02T06:53:41;12.47;;;7.63;;
55316;SDS011;41178;48.956;8.130;2023-07-02T06:58:43;12.23;;;7.60;;
55316;SDS011;41178;48.956;8.130;2023-07-02T07:03:45;12.23;;;8.10;;
55316;SDS011;41178;48.956;8.130;2023-07-02T07:08:46;15.65;;;8.32;;
55316;SDS011;41178;48.956;8.130;2023-07-02T07:13:48;13.20;;;8.40;;
55316;SDS011;41178;48.956;8.130;2023-07-02T07:18:52;12.90;;;8.60;;
55316;SDS011;41178;48.956;8.130;2023-07-02T07:23:54;14.30;;;8.32;;
55316;SDS011;41178;48.956;8.130;2023-07-02T07:28:56;12.63;;;8.05;;
55316;SDS011;41178;48.956;8.130;2023-07-02T07:33:59;13.38;;;8.50;;
55316;SDS011;41178;48.956;8.130;2023-07-02T07:39:01;14.57;;;10.38;;
55316;SDS011;41178;48.956;8.130;2023-07-02T07:44:03;14.97;;;9.97;;
55316;SDS011;41178;48.956;8.130;2023-07-02T07:49:05;15.65;;;10.20;;
55316;SDS011;41178;48.956;8.130;2023-07-02T07:54:06;17.10;;;10.20;;
55316;SDS011;41178;48.956;8.130;2023-07-02T07:59:08;20.85;;;11.85;;
55316;SDS011;41178;48.956;8.130;2023-07-02T08:04:10;20.25;;;11.90;;
55316;SDS011;41178;48.956;8.130;2023-07-02T08:09:12;16.95;;;11.07;;
55316;SDS011;41178;48.956;8.130;2023-07-02T08:14:14;17.83;;;11.32;;
55316;SDS011;41178;48.956;8.130;2023-07-02T08:19:15;15.20;;;10.90;;
55316;SDS011;41178;48.956;8.130;2023-07-02T08:24:17;16.98;;;10.77;;
55316;SDS011;41178;48.956;8.130;2023-07-02T08:29:19;17.05;;;11.75;;
55316;SDS011;41178;48.956;8.130;2023-07-02T08:34:21;15.52;;;10.95;;
55316;SDS011;41178;48.956;8.130;2023-07-02T08:39:23;20.50;;;12.40;;
55316;SDS011;41178;48.956;8.130;2023-07-02T08:44:24;17.67;;;11.88;;
55316;SDS011;41178;48.956;8.130;2023-07-02T08:49:28;16.55;;;11.32;;
55316;SDS011;41178;48.956;8.130;2023-07-02T08:54:30;22.27;;;12.35;;
55316;SDS011;41178;48.956;8.130;2023-07-02T08:59:32;19.75;;;13.75;;
55316;SDS011;41178;48.956;8.130;2023-07-02T09:04:33;19.77;;;12.38;;
55316;SDS011;41178;48.956;8.130;2023-07-02T09:09:45;17.70;;;11.80;;
55316;SDS011;41178;48.956;8.130;2023-07-02T09:14:53;19.38;;;12.10;;
55316;SDS011;41178;48.956;8.130;2023-07-02T09:20:07;16.38;;;12.05;;
55316;SDS011;41178;48.956;8.130;2023-07-02T09:25:10;18.00;;;11.93;;
55316;SDS011;41178;48.956;8.130;2023-07-02T09:30:13;17.45;;;12.00;;
55316;SDS011;41178;48.956;8.130;2023-07-02T09:35:19;19.48;;;12.20;;
55316;SDS011;41178;48.956;8.130;2023-07-02T09:40:21;20.33;;;11.85;;
55316;SDS011;41178;48.956;8.130;2023-07-02T09:45:26;17.13;;;11.98;;
55316;SDS011;41178;48.956;8.130;2023-07-02T09:50:29;17.70;;;11.75;;
55316;SDS011;41178;48.956;8.130;2023-07-02T09:55:31;18.55;;;12.95;;
55316;SDS011;41178;48.956;8.130;2023-07-02T10:00:34;19.20;;;11.85;;
55316;SDS011;41178;48.956;8.130;2023-07-02T10:05:36;17.00;;;11.30;;
55316;SDS011;41178;48.956;8.130;2023-07-02T10:10:38;16.25;;;10.63;;
55316;SDS011;41178;48.956;8.130;2023-07-02T10:15:40;21.42;;;11.90;;
55316;SDS011;41178;48.956;8.130;2023-07-02T10:20:43;17.25;;;11.13;;
55316;SDS011;41178;48.956;8.130;2023-07-02T10:25:45;16.38;;;11.02;;
55316;SDS011;41178;48.956;8.130;2023-07-02T10:30:46;18.70;;;11.25;;
55316;SDS011;41178;48.956;8.130;2023-07-02T10:35:49;18.92;;;11.20;;
55316;SDS011;41178;48.956;8.130;2023-07-02T10:40:58;18.50;;;12.02;;
55316;SDS011;41178;48.956;8.130;2023-07-02T10:46:02;16.70;;;10.90;;
55316;SDS011;41178;48.956;8.130;2023-07-02T10:51:10;16.50;;;11.27;;
55316;SDS011;41178;48.956;8.130;2023-07-02T10:56:16;17.70;;;11.65;;
55316;SDS011;41178;48.956;8.130;2023-07-02T11:06:21;20.10;;;11.77;;
55316;SDS011;41178;48.956;8.130;2023-07-02T11:11:23;18.15;;;11.48;;
55316;SDS011;41178;48.956;8.130;2023-07-02T11:16:27;18.02;;;11.95;;
55316;SDS011;41178;48.956;8.130;2023-07-02T11:21:31;16.83;;;11.38;;
55316;SDS011;41178;48.956;8.130;2023-07-02T11:26:39;17.00;;;10.90;;
55316;SDS011;41178;48.956;8.130;2023-07-02T11:31:42;18.48;;;11.48;;
55316;SDS011;41178;48.956;8.130;2023-07-02T11:36:44;17.77;;;11.00;;
55316;SDS011;41178;48.956;8.130;2023-07-02T11:41:47;15.85;;;10.77;;
55316;SDS011;41178;48.956;8.130;2023-07-02T11:46:50;12.35;;;10.13;;
55316;SDS011;41178;48.956;8.130;2023-07-02T11:51:51;16.80;;;10.60;;
55316;SDS011;41178;48.956;8.130;2023-07-02T11:56:53;16.73;;;10.73;;
55316;SDS011;41178;48.956;8.130;2023-07-02T12:01:55;15.65;;;10.23;;
55316;SDS011;41178;48.956;8.130;2023-07-02T12:06:57;17.13;;;10.73;;
55316;SDS011;41178;48.956;8.130;2023-07-02T12:11:59;15.57;;;10.02;;
55316;SDS011;41178;48.956;8.130;2023-07-02T12:17:01;13.55;;;9.43;;
55316;SDS011;41178;48.956;8.130;2023-07-02T12:22:06;15.32;;;10.43;;
55316;SDS011;41178;48.956;8.130;2023-07-02T12:27:08;14.70;;;9.85;;
55316;SDS011;41178;48.956;8.130;2023-07-02T12:32:09;14.60;;;9.70;;
55316;SDS011;41178;48.956;8.130;2023-07-02T12:37:11;17.05;;;11.30;;
55316;SDS011;41178;48.956;8.130;2023-07-02T12:42:18;19.23;;;10.82;;
55316;SDS011;41178;48.956;8.130;2023-07-02T12:47:20;18.17;;;10.45;;
55316;SDS011;41178;48.956;8.130;2023-07-02T12:52:22;16.17;;;10.23;;
55316;SDS011;41178;48.956;8.130;2023-07-02T12:57:24;15.82;;;8.90;;
55316;SDS011;41178;48.956;8.130;2023-07-02T13:02:27;15.20;;;9.38;;
55316;SDS011;41178;48.956;8.130;2023-07-02T13:07:29;16.38;;;10.23;;
55316;SDS011;41178;48.956;8.130;2023-07-02T13:12:31;15.30;;;9.93;;
55316;SDS011;41178;48.956;8.130;2023-07-02T13:17:33;12.40;;;9.02;;
55316;SDS011;41178;48.956;8.130;2023-07-02T13:22:35;14.85;;;8.82;;
55316;SDS011;41178;48.956;8.130;2023-07-02T13:27:38;14.02;;;9.20;;
55316;SDS011;41178;48.956;8.130;2023-07-02T13:32:40;11.52;;;8.13;;
55316;SDS011;41178;48.956;8.130;2023-07-02T13:37:42;13.85;;;9.00;;
55316;SDS011;41178;48.956;8.130;2023-07-02T13:42:44;14.02;;;9.23;;
55316;SDS011;41178;48.956;8.130;2023-07-02T13:47:46;14.00;;;8.85;;
55316;SDS011;41178;48.956;8.130;2023-07-02T13:52:48;12.90;;;8.82;;
55316;SDS011;41178;48.956;8.130;2023-07-02T13:57:51;15.48;;;9.13;;
55316;SDS011;41178;48.956;8.130;2023-07-02T14:02:52;15.07;;;9.23;;
55316;SDS011;41178;48.956;8.130;2023-07-02T14:07:55;15.48;;;9.40;;
55316;SDS011;41178;48.956;8.130;2023-07-02T14:12:56;13.85;;;9.45;;
55316;SDS011;41178;48.956;8.130;2023-07-02T14:17:58;13.25;;;9.00;;
55316;SDS011;41178;48.956;8.130;2023-07-02T14:23:00;13.05;;;7.82;;
55316;SDS011;41178;48.956;8.130;2023-07-02T14:28:02;13.60;;;8.93;;
55316;SDS011;41178;48.956;8.130;2023-07-02T14:33:04;17.83;;;9.30;;
55316;SDS011;41178;48.956;8.130;2023-07-02T14:38:07;14.35;;;9.15;;
55316;SDS011;41178;48.956;8.130;2023-07-02T14:43:08;17.55;;;9.70;;
55316;SDS011;41178;48.956;8.130;2023-07-02T14:48:10;14.68;;;8.80;;
55316;SDS011;41178;48.956;8.130;2023-07-02T14:53:12;13.90;;;8.75;;
55316;SDS011;41178;48.956;8.130;2023-07-02T14:58:15;13.60;;;8.82;;
55316;SDS011;41178;48.956;8.130;2023-07-02T15:03:19;16.40;;;9.20;;
55316;SDS011;41178;48.956;8.130;2023-07-02T15:08:24;16.23;;;8.90;;
55316;SDS011;41178;48.956;8.130;2023-07-02T15:13:25;12.75;;;9.02;;
55316;SDS011;41178;48.956;8.130;2023-07-02T15:18:27;15.45;;;9.70;;
55316;SDS011;41178;48.956;8.130;2023-07-02T15:23:29;14.77;;;9.43;;
55316;SDS011;41178;48.956;8.130;2023-07-02T15:28:33;15.35;;;9.68;;
55316;SDS011;41178;48.956;8.130;2023-07-02T15:33:36;14.48;;;9.52;;
55316;SDS011;41178;48.956;8.130;2023-07-02T15:38:38;14.23;;;9.30;;
55316;SDS011;41178;48.956;8.130;2023-07-02T15:43:41;14.07;;;9.25;;
55316;SDS011;41178;48.956;8.130;2023-07-02T15:48:44;14.63;;;9.60;;
55316;SDS011;41178;48.956;8.130;2023-07-02T15:53:46;14.70;;;9.55;;
55316;SDS011;41178;48.956;8.130;2023-07-02T15:58:47;16.25;;;9.02;;
55316;SDS011;41178;48.956;8.130;2023-07-02T16:03:49;15.50;;;9.32;;
55316;SDS011;41178;48.956;8.130;2023-07-02T16:08:51;13.82;;;8.80;;
55316;SDS011;41178;48.956;8.130;2023-07-02T16:13:53;13.07;;;8.77;;
55316;SDS011;41178;48.956;8.130;2023-07-02T16:18:55;13.07;;;8.95;;
55316;SDS011;41178;48.956;8.130;2023-07-02T16:23:57;15.00;;;8.57;;
55316;SDS011;41178;48.956;8.130;2023-07-02T16:28:59;15.95;;;8.52;;
55316;SDS011;41178;48.956;8.130;2023-07-02T16:34:01;12.40;;;8.23;;
55316;SDS011;41178;48.956;8.130;2023-07-02T16:39:03;13.98;;;8.50;;
55316;SDS011;41178;48.956;8.130;2023-07-02T16:44:05;15.18;;;8.27;;
55316;SDS011;41178;48.956;8.130;2023-07-02T16:49:08;13.38;;;9.05;;
55316;SDS011;41178;48.956;8.130;2023-07-02T16:54:11;14.70;;;8.98;;
55316;SDS011;41178;48.956;8.130;2023-07-02T16:59:17;18.50;;;9.25;;
55316;SDS011;41178;48.956;8.130;2023-07-02T17:04:21;12.75;;;8.60;;
55316;SDS011;41178;48.956;8.130;2023-07-02T17:09:32;14.30;;;8.90;;
55316;SDS011;41178;48.956;8.130;2023-07-02T17:14:36;14.68;;;9.27;;
55316;SDS011;41178;48.956;8.130;2023-07-02T17:19:42;13.82;;;9.50;;
55316;SDS011;41178;48.956;8.130;2023-07-02T17:24:47;14.00;;;9.13;;
55316;SDS011;41178;48.956;8.130;2023-07-02T17:29:51;14.30;;;9.20;;
55316;SDS011;41178;48.956;8.130;2023-07-02T17:34:54;14.13;;;8.55;;
55316;SDS011;41178;48.956;8.130;2023-07-02T17:39:56;14.73;;;9.05;;
55316;SDS011;41178;48.956;8.130;2023-07-02T17:44:58;15.00;;;9.13;;
55316;SDS011;41178;48.956;8.130;2023-07-02T17:50:01;16.60;;;9.50;;
55316;SDS011;41178;48.956;8.130;2023-07-02T17:55:05;14.65;;;8.40;;
55316;SDS011;41178;48.956;8.130;2023-07-02T18:00:07;12.98;;;8.63;;
55316;SDS011;41178;48.956;8.130;2023-07-02T18:05:10;14.82;;;8.25;;
55316;SDS011;41178;48.956;8.130;2023-07-02T18:10:12;13.60;;;8.50;;
55316;SDS011;41178;48.956;8.130;2023-07-02T18:15:14;14.30;;;8.13;;
55316;SDS011;41178;48.956;8.130;2023-07-02T18:20:15;13.60;;;8.13;;
55316;SDS011;41178;48.956;8.130;2023-07-02T18:25:17;15.77;;;8.30;;
55316;SDS011;41178;48.956;8.130;2023-07-02T18:30:19;12.45;;;8.15;;
55316;SDS011;41178;48.956;8.130;2023-07-02T18:35:21;14.63;;;8.57;;
55316;SDS011;41178;48.956;8.130;2023-07-02T18:40:22;15.38;;;8.05;;
55316;SDS011;41178;48.956;8.130;2023-07-02T18:45:25;12.80;;;8.50;;
55316;SDS011;41178;48.956;8.130;2023-07-02T18:50:27;15.38;;;8.40;;
55316;SDS011;41178;48.956;8.130;2023-07-02T18:55:29;15.20;;;8.10;;
55316;SDS011;41178;48.956;8.130;2023-07-02T19:00:30;13.65;;;8.85;;
55316;SDS011;41178;48.956;8.130;2023-07-02T19:05:32;14.23;;;7.97;;
55316;SDS011;41178;48.956;8.130;2023-07-02T19:10:34;13.43;;;7.85;;
55316;SDS011;41178;48.956;8.130;2023-07-02T19:15:38;13.70;;;8.43;;
55316;SDS011;41178;48.956;8.130;2023-07-02T19:20:41;14.50;;;8.48;;
55316;SDS011;41178;48.956;8.130;2023-07-02T19:25:43;13.77;;;8.10;;
55316;SDS011;41178;48.956;8.130;2023-07-02T19:30:45;11.88;;;8.50;;
55316;SDS011;41178;48.956;8.130;2023-07-02T19:35:47;13.55;;;7.97;;
55316;SDS011;41178;48.956;8.130;2023-07-02T19:40:53;12.15;;;8.10;;
55316;SDS011;41178;48.956;8.130;2023-07-02T19:45:59;14.20;;;7.80;;
55316;SDS011;41178;48.956;8.130;2023-07-02T19:51:03;14.43;;;8.40;;
55316;SDS011;41178;48.956;8.130;2023-07-02T19:56:07;13.48;;;8.40;;
55316;SDS011;41178;48.956;8.130;2023-07-02T20:01:10;11.80;;;7.25;;
55316;SDS011;41178;48.956;8.130;2023-07-02T20:06:13;13.23;;;7.50;;
55316;SDS011;41178;48.956;8.130;2023-07-02T20:11:15;11.55;;;6.72;;
55316;SDS011;41178;48.956;8.130;2023-07-02T20:16:17;16.45;;;8.20;;
55316;SDS011;41178;48.956;8.130;2023-07-02T20:21:20;11.25;;;7.30;;
55316;SDS011;41178;48.956;8.130;2023-07-02T20:26:22;14.18;;;7.07;;
55316;SDS011;41178;48.956;8.130;2023-07-02T20:31:25;12.15;;;7.68;;
55316;SDS011;41178;48.956;8.130;2023-07-02T20:36:27;13.98;;;7.93;;
55316;SDS011;41178;48.956;8.130;2023-07-02T20:41:28;13.95;;;7.38;;
55316;SDS011;41178;48.956;8.130;2023-07-02T20:46:30;12.73;;;7.10;;
55316;SDS011;41178;48.956;8.130;2023-07-02T20:51:33;12.60;;;7.57;;
55316;SDS011;41178;48.956;8.130;2023-07-02T20:56:37;12.30;;;7.60;;
55316;SDS011;41178;48.956;8.130;2023-07-02T21:01:40;13.77;;;8.07;;
55316;SDS011;41178;48.956;8.130;2023-07-02T21:06:41;13.70;;;8.30;;
55316;SDS011;41178;48.956;8.130;2023-07-02T21:11:43;13.20;;;7.80;;
55316;SDS011;41178;48.956;8.130;2023-07-02T21:16:45;12.82;;;7.03;;
55316;SDS011;41178;48.956;8.130;2023-07-02T21:21:50;11.48;;;6.72;;
55316;SDS011;41178;48.956;8.130;2023-07-02T21:26:52;15.48;;;7.93;;
55316;SDS011;41178;48.956;8.130;2023-07-02T21:31:54;12.75;;;6.95;;
55316;SDS011;41178;48.956;8.130;2023-07-02T21:36:56;16.05;;;8.05;;
55316;SDS011;41178;48.956;8.130;2023-07-02T21:41:58;14.02;;;7.47;;
55316;SDS011;41178;48.956;8.130;2023-07-02T21:46:59;13.38;;;7.15;;
55316;SDS011;41178;48.956;8.130;2023-07-02T21:52:25;13.00;;;7.68;;
55316;SDS011;41178;48.956;8.130;2023-07-02T21:57:29;14.90;;;7.40;;
55316;SDS011;41178;48.956;8.130;2023-07-02T22:02:31;12.85;;;7.50;;
55316;SDS011;41178;48.956;8.130;2023-07-02T22:07:32;15.23;;;7.47;;
55316;SDS011;41178;48.956;8.130;2023-07-02T22:12:35;14.18;;;7.10;;
55316;SDS011;41178;48.956;8.130;2023-07-02T22:17:38;13.18;;;6.97;;
55316;SDS011;41178;48.956;8.130;2023-07-02T22:22:40;10.02;;;6.68;;
55316;SDS011;41178;48.956;8.130;2023-07-02T22:27:43;11.90;;;6.32;;
55316;SDS011;41178;48.956;8.130;2023-07-02T22:32:45;13.98;;;6.97;;
55316;SDS011;41178;48.956;8.130;2023-07-02T22:37:47;14.18;;;6.72;;
55316;SDS011;41178;48.956;8.130;2023-07-02T22:42:50;14.00;;;6.57;;
55316;SDS011;41178;48.956;8.130;2023-07-02T22:47:52;13.77;;;7.47;;
55316;SDS011;41178;48.956;8.130;2023-07-02T22:52:53;10.57;;;7.22;;
55316;SDS011;41178;48.956;8.130;2023-07-02T22:57:55;13.77;;;7.03;;
55316;SDS011;41178;48.956;8.130;2023-07-02T23:02:57;13.27;;;6.97;;
55316;SDS011;41178;48.956;8.130;2023-07-02T23:07:59;14.63;;;7.55;;
55316;SDS011;41178;48.956;8.130;2023-07-02T23:13:01;14.25;;;7.20;;
55316;SDS011;41178;48.956;8.130;2023-07-02T23:18:03;11.57;;;6.63;;
55316;SDS011;41178;48.956;8.130;2023-07-02T23:23:05;13.25;;;7.30;;
55316;SDS011;41178;48.956;8.130;2023-07-02T23:28:07;11.95;;;6.97;;
55316;SDS011;41178;48.956;8.130;2023-07-02T23:33:11;13.13;;;6.88;;
55316;SDS011;41178;48.956;8.130;2023-07-02T23:38:14;11.35;;;7.03;;
55316;SDS011;41178;48.956;8.130;2023-07-02T23:43:15;11.32;;;6.60;;
55316;SDS011;41178;48.956;8.130;2023-07-02T23:48:17;12.27;;;6.40;;
55316;SDS011;41178;48.956;8.130;2023-07-02T23:53:19;13.20;;;7.18;;
55316;SDS011;41178;48.956;8.130;2023-07-02T23:58:21;13.57;;;6.93;;
